createdAt,value
2023-03-22T00:00:14.461Z,16.61
2023-03-22T00:03:03.249Z,16.30
2023-03-22T00:05:31.652Z,16.18
2023-03-22T00:08:00.550Z,16.30
2023-03-22T00:10:29.840Z,16.46
2023-03-22T00:12:59.974Z,16.48
2023-03-22T00:15:29.660Z,16.25
2023-03-22T00:17:59.139Z,16.17
2023-03-22T00:20:30.445Z,16.22
2023-03-22T00:22:59.330Z,16.07
2023-03-22T00:25:27.922Z,16.06
2023-03-22T00:27:56.455Z,16.06
2023-03-22T00:30:26.320Z,16.54
2023-03-22T00:32:54.937Z,15.92
2023-03-22T00:35:23.332Z,15.87
2023-03-22T00:37:52.017Z,15.76
2023-03-22T00:40:20.643Z,15.92
2023-03-22T00:42:49.164Z,15.90
2023-03-22T00:45:17.561Z,16.08
2023-03-22T00:47:47.669Z,16.48
2023-03-22T00:50:16.065Z,15.82
2023-03-22T00:52:44.806Z,15.93
2023-03-22T00:55:13.179Z,15.89
2023-03-22T00:57:41.661Z,15.93
2023-03-22T01:00:13.759Z,16.35
2023-03-22T01:02:42.655Z,16.16
2023-03-22T01:05:15.773Z,16.44
2023-03-22T01:07:44.998Z,16.11
2023-03-22T01:10:13.896Z,16.27
2023-03-22T01:12:42.536Z,16.00
2023-03-22T01:15:11.696Z,16.13
2023-03-22T01:17:40.552Z,16.03
2023-03-22T01:20:10.090Z,16.15
2023-03-22T01:22:40.188Z,16.37
2023-03-22T01:25:09.539Z,16.05
2023-03-22T01:27:38.306Z,15.85
2023-03-22T01:30:07.599Z,15.97
2023-03-22T01:32:37.787Z,16.11
2023-03-22T01:35:06.917Z,15.64
2023-03-22T01:37:35.775Z,15.45
2023-03-22T01:40:06.623Z,16.01
2023-03-22T01:42:35.232Z,15.70
2023-03-22T01:45:34.930Z,16.65
2023-03-22T01:48:06.907Z,16.16
2023-03-22T01:50:37.685Z,15.54
2023-03-22T01:53:07.755Z,16.14
2023-03-22T01:55:38.502Z,16.14
2023-03-22T01:58:07.115Z,15.61
2023-03-22T02:00:35.525Z,15.60
2023-03-22T02:03:04.152Z,15.43
2023-03-22T02:05:33.040Z,15.64
2023-03-22T02:08:02.214Z,15.69
2023-03-22T02:10:30.700Z,15.49
2023-03-22T02:13:13.208Z,16.20
2023-03-22T02:15:47.174Z,15.93
2023-03-22T02:18:34.235Z,16.20
2023-03-22T02:21:29.310Z,16.17
2023-03-22T02:24:14.260Z,16.07
2023-03-22T02:27:06.512Z,16.00
2023-03-22T02:29:41.584Z,15.69
2023-03-22T02:32:42.429Z,15.98
2023-03-22T02:35:40.826Z,15.77
2023-03-22T02:38:24.102Z,15.78
2023-03-22T02:40:56.260Z,15.49
2023-03-22T02:43:34.388Z,15.67
2023-03-22T02:46:06.650Z,15.39
2023-03-22T02:48:39.682Z,15.33
2023-03-22T02:51:11.692Z,15.47
2023-03-22T02:53:43.851Z,15.52
2023-03-22T02:56:16.212Z,15.36
2023-03-22T02:58:46.580Z,15.15
2023-03-22T03:01:21.113Z,15.19
2023-03-22T03:03:51.243Z,15.10
2023-03-22T03:06:21.712Z,15.07
2023-03-22T03:08:51.962Z,15.09
2023-03-22T03:11:22.490Z,15.30
2023-03-22T03:13:51.311Z,14.93
2023-03-22T03:16:22.428Z,15.22
2023-03-22T03:18:54.686Z,15.35
2023-03-22T03:21:32.751Z,15.48
2023-03-22T03:24:13.985Z,15.53
2023-03-22T03:26:44.893Z,16.11
2023-03-22T03:29:16.379Z,15.24
2023-03-22T03:31:48.447Z,15.13
2023-03-22T03:34:21.523Z,15.26
2023-03-22T03:36:55.285Z,15.33
2023-03-22T03:39:25.852Z,15.29
2023-03-22T03:41:56.885Z,15.39
2023-03-22T03:44:25.651Z,15.12
2023-03-22T03:46:54.343Z,14.96
2023-03-22T03:49:23.588Z,15.11
2023-03-22T03:51:53.700Z,15.27
2023-03-22T03:54:22.624Z,15.07
2023-03-22T03:56:51.183Z,14.67
2023-03-22T03:59:21.925Z,15.10
2023-03-22T04:01:51.965Z,14.43
2023-03-22T04:04:26.687Z,14.70
2023-03-22T04:06:57.073Z,14.80
2023-03-22T04:09:27.108Z,15.06
2023-03-22T04:11:56.143Z,14.78
2023-03-22T04:14:26.773Z,15.29
2023-03-22T04:16:56.001Z,14.78
2023-03-22T04:19:24.498Z,14.51
2023-03-22T04:21:53.912Z,14.54
2023-03-22T04:24:22.859Z,14.77
2023-03-22T04:26:52.552Z,14.89
2023-03-22T04:29:22.157Z,14.66
2023-03-22T04:31:53.275Z,15.06
2023-03-22T04:34:21.650Z,14.53
2023-03-22T04:36:50.868Z,14.14
2023-03-22T04:39:19.215Z,14.39
2023-03-22T04:41:47.803Z,14.16
2023-03-22T04:44:16.237Z,14.20
2023-03-22T04:46:44.982Z,14.21
2023-03-22T04:49:14.631Z,14.76
2023-03-22T04:51:43.346Z,14.25
2023-03-22T04:54:11.700Z,14.43
2023-03-22T04:56:40.423Z,14.66
2023-03-22T04:59:08.651Z,14.65
2023-03-22T05:01:37.706Z,14.77
2023-03-22T05:04:06.228Z,14.96
2023-03-22T05:06:36.294Z,15.61
2023-03-22T05:09:05.166Z,15.10
2023-03-22T05:11:33.900Z,15.11
2023-03-22T05:14:02.113Z,14.85
2023-03-22T05:16:30.767Z,14.70
2023-03-22T05:18:59.303Z,14.55
2023-03-22T05:21:29.252Z,14.44
2023-03-22T05:24:00.515Z,15.01
2023-03-22T05:26:29.209Z,14.42
2023-03-22T05:28:58.447Z,14.57
2023-03-22T05:31:28.811Z,14.29
2023-03-22T05:33:57.652Z,14.27
2023-03-22T05:36:29.725Z,14.31
2023-03-22T05:38:59.543Z,14.70
2023-03-22T05:41:28.425Z,14.18
2023-03-22T05:43:56.940Z,14.45
2023-03-22T05:46:25.814Z,14.64
2023-03-22T05:48:54.154Z,14.82
2023-03-22T05:51:25.974Z,15.07
2023-03-22T05:53:54.680Z,15.35
2023-03-22T05:56:25.885Z,15.88
2023-03-22T05:58:54.235Z,15.82
2023-03-22T06:01:23.247Z,15.99
2023-03-22T06:03:51.531Z,16.11
2023-03-22T06:06:20.208Z,16.02
2023-03-22T06:08:48.550Z,16.14
2023-03-22T06:11:18.621Z,16.01
2023-03-22T06:13:48.334Z,16.35
2023-03-22T06:16:16.903Z,15.76
2023-03-22T06:18:45.428Z,15.92
2023-03-22T06:21:14.136Z,16.18
2023-03-22T06:23:43.785Z,16.21
2023-03-22T06:26:12.609Z,16.22
2023-03-22T06:28:40.823Z,16.29
2023-03-22T06:31:11.454Z,16.71
2023-03-22T06:33:39.850Z,16.21
2023-03-22T06:36:08.962Z,16.34
2023-03-22T06:38:37.271Z,16.14
2023-03-22T06:41:06.563Z,16.17
2023-03-22T06:43:35.410Z,15.94
2023-03-22T06:46:04.272Z,16.27
2023-03-22T06:48:34.057Z,17.06
2023-03-22T06:51:02.670Z,17.11
2023-03-22T06:53:31.021Z,17.45
2023-03-22T06:56:01.917Z,18.25
2023-03-22T06:58:30.325Z,17.64
2023-03-22T07:00:59.062Z,17.75
2023-03-22T07:03:27.625Z,17.76
2023-03-22T07:06:03.546Z,18.51
2023-03-22T07:08:31.949Z,17.87
2023-03-22T07:11:00.549Z,17.86
2023-03-22T07:13:29.221Z,17.87
2023-03-22T07:15:58.425Z,18.17
2023-03-22T07:18:27.264Z,18.53
2023-03-22T07:20:55.973Z,18.78
2023-03-22T07:23:26.090Z,19.24
2023-03-22T07:25:56.136Z,19.08
2023-03-22T07:28:24.999Z,19.46
2023-03-22T07:31:01.373Z,20.26
2023-03-22T07:33:29.660Z,19.50
2023-03-22T07:35:58.259Z,19.49
2023-03-22T07:38:28.051Z,20.21
2023-03-22T07:40:56.778Z,20.04
2023-03-22T07:43:27.451Z,20.47
2023-03-22T07:45:56.231Z,22.22
2023-03-22T07:48:25.175Z,21.62
2023-03-22T07:50:57.435Z,22.28
2023-03-22T07:53:28.032Z,21.88
2023-03-22T07:55:56.602Z,22.55
2023-03-22T07:58:24.969Z,23.32
2023-03-22T08:00:53.797Z,23.54
2023-03-22T08:03:23.377Z,23.42
2023-03-22T08:05:52.157Z,23.12
2023-03-22T08:08:20.788Z,23.12
2023-03-22T08:10:53.645Z,23.62
2023-03-22T08:13:21.859Z,22.96
2023-03-22T08:15:50.628Z,23.12
2023-03-22T08:18:19.058Z,23.04
2023-03-22T08:20:47.917Z,22.69
2023-03-22T08:23:16.957Z,22.87
2023-03-22T08:25:45.842Z,23.32
2023-03-22T08:28:16.020Z,24.14
2023-03-22T08:30:45.222Z,23.41
2023-03-22T08:33:13.627Z,23.29
2023-03-22T08:35:42.852Z,23.15
2023-03-22T08:38:11.242Z,22.66
2023-03-22T08:40:40.055Z,22.46
2023-03-22T08:43:08.726Z,22.52
2023-03-22T08:45:39.200Z,22.83
2023-03-22T08:48:08.157Z,22.60
2023-03-22T08:50:37.032Z,22.71
2023-03-22T08:53:05.772Z,23.06
2023-03-22T08:55:35.629Z,23.36
2023-03-22T08:58:04.845Z,23.94
2023-03-22T09:00:45.991Z,24.40
2023-03-22T09:03:18.063Z,24.94
2023-03-22T09:05:46.652Z,24.15
2023-03-22T09:08:19.267Z,23.66
2023-03-22T09:10:51.857Z,23.65
2023-03-22T09:13:21.106Z,23.54
2023-03-22T09:15:49.996Z,23.19
2023-03-22T09:18:19.854Z,23.85
2023-03-22T09:20:48.729Z,23.66
2023-03-22T09:23:17.314Z,23.84
2023-03-22T09:25:46.419Z,24.58
2023-03-22T09:28:15.357Z,24.77
2023-03-22T09:30:44.910Z,25.08
2023-03-22T09:33:14.694Z,25.20
2023-03-22T09:35:45.153Z,25.77
2023-03-22T09:38:13.908Z,25.70
2023-03-22T09:40:48.047Z,27.04
2023-03-22T09:43:16.809Z,27.01
2023-03-22T09:45:48.572Z,28.10
2023-03-22T09:48:20.162Z,28.29
2023-03-22T09:50:53.387Z,28.03
2023-03-22T09:53:23.017Z,27.67
2023-03-22T09:55:55.806Z,28.76
2023-03-22T09:58:27.135Z,29.39
2023-03-22T10:00:59.549Z,29.78
2023-03-22T10:03:45.451Z,29.63
2023-03-22T10:06:19.737Z,29.13
2023-03-22T10:08:53.516Z,29.53
2023-03-22T10:11:27.644Z,30.64
2023-03-22T10:14:01.803Z,31.98
2023-03-22T10:16:33.518Z,32.40
2023-03-22T10:19:06.700Z,31.75
2023-03-22T10:21:37.328Z,31.14
2023-03-22T10:24:09.607Z,31.25
2023-03-22T10:26:40.145Z,30.94
2023-03-22T10:29:14.029Z,31.62
2023-03-22T10:31:44.950Z,32.75
2023-03-22T10:34:17.798Z,33.32
2023-03-22T10:36:48.563Z,32.96
2023-03-22T10:39:28.311Z,32.79
2023-03-22T10:41:58.289Z,31.96
2023-03-22T10:44:28.093Z,31.65
2023-03-22T10:46:58.390Z,31.54
2023-03-22T10:49:29.863Z,31.25
2023-03-22T10:52:04.321Z,31.09
2023-03-22T10:54:32.777Z,30.84
2023-03-22T10:57:01.580Z,30.84
2023-03-22T10:59:49.727Z,31.60
2023-03-22T11:02:20.527Z,30.67
2023-03-22T11:04:50.579Z,30.69
2023-03-22T11:07:32.133Z,31.28
2023-03-22T11:10:01.172Z,31.76
2023-03-22T11:12:29.693Z,30.43
2023-03-22T11:14:58.126Z,30.57
2023-03-22T11:17:27.064Z,31.39
2023-03-22T11:19:57.411Z,33.18
2023-03-22T11:22:32.167Z,34.53
2023-03-22T11:25:01.332Z,35.16
2023-03-22T11:27:33.059Z,36.63
2023-03-22T11:30:10.484Z,38.63
2023-03-22T11:32:40.833Z,40.10
2023-03-22T11:35:15.800Z,41.69
2023-03-22T11:37:48.235Z,42.23
2023-03-22T11:40:18.165Z,41.72
2023-03-22T11:42:47.307Z,41.28
2023-03-22T11:45:17.030Z,41.34
2023-03-22T11:47:46.000Z,41.24
2023-03-22T11:50:28.463Z,41.83
2023-03-22T11:52:59.100Z,40.42
2023-03-22T11:55:27.673Z,38.02
2023-03-22T11:57:57.107Z,36.01
2023-03-22T12:00:27.406Z,34.19
2023-03-22T12:02:58.719Z,32.17
2023-03-22T12:05:28.633Z,31.08
2023-03-22T12:08:01.944Z,30.71
2023-03-22T12:10:32.940Z,29.84
2023-03-22T12:13:01.905Z,30.03
2023-03-22T12:15:31.590Z,28.63
2023-03-22T12:18:06.602Z,28.26
2023-03-22T12:20:42.426Z,28.46
2023-03-22T12:23:16.942Z,28.22
2023-03-22T12:25:48.942Z,27.92
2023-03-22T12:28:20.261Z,27.92
2023-03-22T12:30:50.015Z,27.75
2023-03-22T12:33:21.888Z,27.79
2023-03-22T12:35:53.127Z,27.74
2023-03-22T12:38:29.748Z,27.47
2023-03-22T12:40:59.523Z,27.05
2023-03-22T12:43:39.540Z,27.45
2023-03-22T12:46:08.645Z,27.05
2023-03-22T12:48:41.104Z,27.03
2023-03-22T12:51:12.201Z,26.85
2023-03-22T12:53:44.157Z,27.10
2023-03-22T12:56:14.596Z,26.94
2023-03-22T12:58:45.354Z,26.84
2023-03-22T13:01:22.415Z,27.18
2023-03-22T13:03:53.798Z,26.80
2023-03-22T13:06:32.689Z,27.94
2023-03-22T13:09:20.627Z,27.50
2023-03-22T13:11:51.681Z,26.95
2023-03-22T13:14:56.616Z,27.40
2023-03-22T13:17:39.606Z,27.16
2023-03-22T13:20:28.428Z,27.37
2023-03-22T13:23:02.300Z,26.74
2023-03-22T13:25:36.313Z,26.71
2023-03-22T13:28:06.828Z,26.35
2023-03-22T13:30:38.049Z,26.55
2023-03-22T13:33:16.436Z,26.90
2023-03-22T13:35:48.765Z,26.41
2023-03-22T13:38:22.179Z,26.49
2023-03-22T13:40:55.920Z,26.32
2023-03-22T13:43:28.700Z,26.29
2023-03-22T13:46:12.747Z,26.78
2023-03-22T13:48:44.157Z,26.29
2023-03-22T13:51:15.708Z,26.66
2023-03-22T13:53:47.181Z,26.53
2023-03-22T13:56:30.741Z,27.33
2023-03-22T13:58:59.075Z,26.43
2023-03-22T14:01:31.228Z,27.14
2023-03-22T14:04:02.202Z,26.95
2023-03-22T14:06:33.865Z,27.78
2023-03-22T14:09:06.242Z,26.88
2023-03-22T14:11:41.096Z,27.26
2023-03-22T14:14:12.574Z,27.22
2023-03-22T14:16:44.298Z,27.18
2023-03-22T14:19:18.810Z,27.32
